createdAt,value
2017-04-08T00:00:03.213Z,11.65
2017-04-08T00:01:03.213Z,11.75
2017-04-08T00:02:03.447Z,11.65
2017-04-08T00:03:03.190Z,11.67
2017-04-08T00:04:03.181Z,11.64
2017-04-08T00:05:03.180Z,11.64
2017-04-08T00:06:03.181Z,11.61
2017-04-08T00:07:03.409Z,11.57
2017-04-08T00:08:03.155Z,11.55
2017-04-08T00:09:03.144Z,11.51
2017-04-08T00:10:03.138Z,11.49
2017-04-08T00:11:03.145Z,11.55
2017-04-08T00:12:03.146Z,11.54
2017-04-08T00:13:03.128Z,11.49
2017-04-08T00:14:03.108Z,11.52
2017-04-08T00:15:03.101Z,11.51
2017-04-08T00:16:03.102Z,11.51
2017-04-08T00:17:03.335Z,11.54
2017-04-08T00:18:03.124Z,11.49
2017-04-08T00:19:03.087Z,11.46
2017-04-08T00:20:02.755Z,11.49
2017-04-08T00:21:02.749Z,11.51
2017-04-08T00:22:03.110Z,11.43
2017-04-08T00:23:03.040Z,11.42
2017-04-08T00:24:03.040Z,11.44
2017-04-08T00:25:03.021Z,11.44
2017-04-08T00:26:03.030Z,11.46
2017-04-08T00:27:03.258Z,11.44
2017-04-08T00:28:03.009Z,11.36
2017-04-08T00:29:02.993Z,11.33
2017-04-08T00:30:02.986Z,11.35
2017-04-08T00:31:02.975Z,11.36
2017-04-08T00:32:03.220Z,11.35
2017-04-08T00:33:02.962Z,11.39
2017-04-08T00:34:02.653Z,11.29
2017-04-08T00:35:02.947Z,11.28
2017-04-08T00:36:02.937Z,11.33
2017-04-08T00:37:03.183Z,11.32
2017-04-08T00:38:02.923Z,11.37
2017-04-08T00:39:02.615Z,11.36
2017-04-08T00:40:02.910Z,11.28
2017-04-08T00:41:02.903Z,11.39
2017-04-08T00:42:02.839Z,11.36
2017-04-08T00:43:02.886Z,11.27
2017-04-08T00:44:02.880Z,11.24
2017-04-08T00:45:02.868Z,11.33
2017-04-08T00:46:02.860Z,11.33
2017-04-08T00:47:03.154Z,11.29
2017-04-08T00:48:02.847Z,11.32
2017-04-08T00:49:02.838Z,11.27
2017-04-08T00:50:02.831Z,11.35
2017-04-08T00:51:02.823Z,11.32
2017-04-08T00:52:03.066Z,11.28
2017-04-08T00:53:02.807Z,11.33
2017-04-08T00:54:02.803Z,11.29
2017-04-08T00:55:02.792Z,11.28
2017-04-08T00:56:02.784Z,11.32
2017-04-08T00:57:03.029Z,11.28
2017-04-08T00:58:02.769Z,11.24
2017-04-08T00:59:02.762Z,11.22
2017-04-08T01:00:02.757Z,11.22
2017-04-08T01:01:02.743Z,11.24
2017-04-08T01:02:03.044Z,11.29
2017-04-08T01:03:02.730Z,11.29
2017-04-08T01:04:02.722Z,11.33
2017-04-08T01:05:02.713Z,11.22
2017-04-08T01:06:02.704Z,11.28
2017-04-08T01:07:02.947Z,11.19
2017-04-08T01:08:02.693Z,11.27
2017-04-08T01:09:02.682Z,11.27
2017-04-08T01:10:02.676Z,11.11
2017-04-08T01:11:02.666Z,11.1
2017-04-08T01:12:02.906Z,11.11
2017-04-08T01:13:02.651Z,11.15
2017-04-08T01:14:02.642Z,11.06
2017-04-08T01:15:02.637Z,11.18
2017-04-08T01:16:02.632Z,11.14
2017-04-08T01:17:02.614Z,11.25
2017-04-08T01:18:02.610Z,11.22
2017-04-08T01:19:02.601Z,11.29
2017-04-08T01:20:02.595Z,11.27
2017-04-08T01:21:02.586Z,11.28
2017-04-08T01:22:02.879Z,11.27
2017-04-08T01:23:02.595Z,11.25
2017-04-08T01:24:02.563Z,11.29
2017-04-08T01:25:02.556Z,11.24
2017-04-08T01:26:02.548Z,11.17
2017-04-08T01:27:02.790Z,11.25
2017-04-08T01:28:02.533Z,11.25
2017-04-08T01:29:02.223Z,11.25
2017-04-08T01:30:02.515Z,11.25
2017-04-08T01:31:02.509Z,11.29
2017-04-08T01:32:02.803Z,11.21
2017-04-08T01:33:02.493Z,11.22
2017-04-08T01:34:02.489Z,11.27
2017-04-08T01:35:02.478Z,11.27
2017-04-08T01:36:02.472Z,11.27
2017-04-08T01:37:02.713Z,11.18
2017-04-08T01:38:02.454Z,11.29
2017-04-08T01:39:02.448Z,11.24
2017-04-08T01:40:02.442Z,11.24
2017-04-08T01:41:02.430Z,11.32
2017-04-08T01:42:02.724Z,11.35
2017-04-08T01:43:02.414Z,11.32
2017-04-08T01:44:02.409Z,11.28
2017-04-08T01:45:02.400Z,11.29
2017-04-08T01:46:02.393Z,11.27
2017-04-08T01:47:02.684Z,11.29
2017-04-08T01:48:02.376Z,11.35
2017-04-08T01:49:02.369Z,11.28
2017-04-08T01:50:02.361Z,11.25
2017-04-08T01:51:02.353Z,11.28
2017-04-08T01:52:02.595Z,11.33
2017-04-08T01:53:02.340Z,11.33
2017-04-08T01:54:02.332Z,11.28
2017-04-08T01:55:02.328Z,11.22
2017-04-08T01:56:02.314Z,11.28
2017-04-08T01:57:02.559Z,11.33
2017-04-08T01:58:02.300Z,11.32
2017-04-08T01:59:01.990Z,11.24
2017-04-08T02:00:02.282Z,11.19
2017-04-08T02:01:02.275Z,11.28
2017-04-08T02:02:02.568Z,11.24
2017-04-08T02:03:02.263Z,11.19
2017-04-08T02:04:02.251Z,11.29
2017-04-08T02:05:02.246Z,11.27
2017-04-08T02:06:02.238Z,11.29
2017-04-08T02:07:02.483Z,11.35
2017-04-08T02:08:02.219Z,11.28
2017-04-08T02:09:02.217Z,11.29
2017-04-08T02:10:02.203Z,11.32
2017-04-08T02:11:02.234Z,11.27
2017-04-08T02:12:02.540Z,11.22
2017-04-08T02:13:02.186Z,11.35
2017-04-08T02:14:02.175Z,11.29
2017-04-08T02:15:02.168Z,11.32
2017-04-08T02:16:02.157Z,11.22
2017-04-08T02:17:02.403Z,11.25
2017-04-08T02:18:01.838Z,11.28
2017-04-08T02:19:02.136Z,11.19
2017-04-08T02:20:02.129Z,11.35
2017-04-08T02:21:02.122Z,11.27
2017-04-08T02:22:01.816Z,11.35
2017-04-08T02:23:02.107Z,11.32
2017-04-08T02:24:02.099Z,11.24
2017-04-08T02:25:02.095Z,11.25
2017-04-08T02:26:02.082Z,11.25
2017-04-08T02:27:02.078Z,11.33
2017-04-08T02:28:02.072Z,11.25
2017-04-08T02:29:02.065Z,11.28
2017-04-08T02:30:02.051Z,11.28
2017-04-08T02:31:02.047Z,11.28
2017-04-08T02:32:02.033Z,11.32
2017-04-08T02:33:02.026Z,11.33
2017-04-08T02:34:02.020Z,11.19
2017-04-08T02:35:02.009Z,11.32
2017-04-08T02:36:02.003Z,11.28
2017-04-08T02:37:02.000Z,11.27
2017-04-08T02:38:01.986Z,11.22
2017-04-08T02:39:01.979Z,11.29
2017-04-08T02:40:01.973Z,11.32
2017-04-08T02:41:01.966Z,11.27
2017-04-08T02:42:01.955Z,11.22
2017-04-08T02:43:01.648Z,11.25
2017-04-08T02:44:01.944Z,11.21
2017-04-08T02:45:01.933Z,11.22
2017-04-08T02:46:01.926Z,11.24
2017-04-08T02:47:01.915Z,11.27
2017-04-08T02:48:01.910Z,11.25
2017-04-08T02:49:01.900Z,11.28
2017-04-08T02:50:01.891Z,11.19
2017-04-08T02:51:01.886Z,11.17
2017-04-08T02:52:01.878Z,11.18
2017-04-08T02:53:01.868Z,11.22
2017-04-08T02:54:01.861Z,11.15
2017-04-08T02:55:01.852Z,11.07
2017-04-08T02:56:01.544Z,11.15
2017-04-08T02:57:01.835Z,11.18
2017-04-08T02:58:01.834Z,11.14
2017-04-08T02:59:01.822Z,11.09
2017-04-08T03:00:01.813Z,11.17
2017-04-08T03:01:01.805Z,11.24
2017-04-08T03:02:01.800Z,11.22
2017-04-08T03:03:01.791Z,11.17
2017-04-08T03:04:01.784Z,11.1
2017-04-08T03:05:01.775Z,11.1
2017-04-08T03:06:01.766Z,11.1
2017-04-08T03:07:01.801Z,11.17
2017-04-08T03:08:01.753Z,11.09
2017-04-08T03:09:01.745Z,11.1
2017-04-08T03:10:01.737Z,11.11
2017-04-08T03:11:01.727Z,11.1
2017-04-08T03:12:01.721Z,11.18
2017-04-08T03:13:01.712Z,11.06
2017-04-08T03:14:01.400Z,11.09
2017-04-08T03:15:01.699Z,11.09
2017-04-08T03:16:01.689Z,11.11
2017-04-08T03:17:01.711Z,11.07
2017-04-08T03:18:01.672Z,11.11
2017-04-08T03:19:01.665Z,11.09
2017-04-08T03:20:01.660Z,11.14
2017-04-08T03:21:01.651Z,11.06
2017-04-08T03:22:01.641Z,11.03
2017-04-08T03:23:01.935Z,11.03
2017-04-08T03:24:01.628Z,11.03
2017-04-08T03:25:01.617Z,11.07
2017-04-08T03:26:01.611Z,10.94
2017-04-08T03:27:01.601Z,10.97
2017-04-08T03:28:01.846Z,11
2017-04-08T03:29:01.598Z,10.96
2017-04-08T03:30:01.577Z,10.85
2017-04-08T03:31:01.576Z,10.84
2017-04-08T03:32:01.570Z,10.82
2017-04-08T03:33:01.853Z,10.79
2017-04-08T03:34:01.545Z,10.71
2017-04-08T03:35:01.537Z,10.78
2017-04-08T03:36:01.530Z,10.7
2017-04-08T03:37:01.520Z,10.76
2017-04-08T03:38:01.763Z,10.74
2017-04-08T03:39:01.505Z,10.7
2017-04-08T03:40:01.496Z,10.7
2017-04-08T03:41:01.527Z,10.84
2017-04-08T03:42:01.480Z,10.68
2017-04-08T03:43:01.725Z,10.73
2017-04-08T03:44:01.469Z,10.67
2017-04-08T03:45:01.456Z,10.64
2017-04-08T03:46:01.453Z,10.66
2017-04-08T03:47:01.441Z,10.6
2017-04-08T03:48:01.732Z,10.66
2017-04-08T03:49:01.423Z,10.59
2017-04-08T03:50:01.420Z,10.64
2017-04-08T03:51:01.411Z,10.66
2017-04-08T03:52:01.399Z,10.67
2017-04-08T03:53:01.696Z,10.63
2017-04-08T03:54:01.389Z,10.64
2017-04-08T03:55:01.377Z,10.64
2017-04-08T03:56:01.373Z,10.68
2017-04-08T03:57:01.360Z,10.7
2017-04-08T03:58:01.604Z,10.7
2017-04-08T03:59:01.344Z,10.63
2017-04-08T04:00:01.337Z,10.6
2017-04-08T04:01:01.330Z,10.66
2017-04-08T04:02:01.320Z,10.66
2017-04-08T04:03:01.613Z,10.64
2017-04-08T04:04:01.303Z,10.73
2017-04-08T04:05:01.295Z,10.71
2017-04-08T04:06:01.287Z,10.76
2017-04-08T04:07:01.276Z,10.74
2017-04-08T04:08:01.527Z,10.81
2017-04-08T04:09:01.264Z,10.73
2017-04-08T04:10:01.251Z,10.71
2017-04-08T04:11:01.250Z,10.78
2017-04-08T04:12:01.237Z,10.78
2017-04-08T04:13:01.527Z,10.84
2017-04-08T04:14:01.251Z,10.84
2017-04-08T04:15:01.217Z,10.85
2017-04-08T04:16:01.203Z,10.84
2017-04-08T04:17:01.195Z,10.82
2017-04-08T04:18:01.437Z,10.82
2017-04-08T04:19:01.180Z,10.85
2017-04-08T04:20:01.174Z,10.91
2017-04-08T04:21:01.163Z,10.84
2017-04-08T04:22:01.156Z,10.89
2017-04-08T04:23:01.457Z,10.82
2017-04-08T04:24:00.836Z,10.85
2017-04-08T04:25:01.136Z,10.78
2017-04-08T04:26:01.121Z,10.76
2017-04-08T04:27:01.115Z,10.73
2017-04-08T04:28:01.106Z,10.81
2017-04-08T04:29:01.101Z,10.82
2017-04-08T04:30:01.093Z,10.78
2017-04-08T04:31:01.082Z,10.79
2017-04-08T04:32:01.075Z,10.73
2017-04-08T04:33:01.065Z,10.78
2017-04-08T04:34:01.057Z,10.79
2017-04-08T04:35:01.051Z,10.79
2017-04-08T04:36:01.044Z,10.78
2017-04-08T04:37:01.031Z,10.78
2017-04-08T04:38:01.029Z,10.88
2017-04-08T04:39:00.712Z,10.82
2017-04-08T04:40:01.013Z,10.84
2017-04-08T04:41:01.000Z,10.81
2017-04-08T04:42:00.997Z,10.78
2017-04-08T04:43:00.681Z,10.86
2017-04-08T04:44:00.976Z,10.81
2017-04-08T04:45:00.970Z,10.79
2017-04-08T04:46:00.965Z,10.79
2017-04-08T04:47:00.955Z,10.78
2017-04-08T04:48:00.947Z,10.81
2017-04-08T04:49:00.632Z,10.76
2017-04-08T04:50:00.626Z,10.71
2017-04-08T04:51:00.617Z,10.76
2017-04-08T04:52:00.609Z,10.76
2017-04-08T04:53:00.906Z,10.76
2017-04-08T04:54:00.595Z,10.76
2017-04-08T04:55:00.891Z,10.81
2017-04-08T04:56:00.578Z,10.85
2017-04-08T04:57:00.872Z,10.88
2017-04-08T04:58:00.864Z,10.86
2017-04-08T04:59:00.854Z,10.89
2017-04-08T05:00:00.847Z,10.92
2017-04-08T05:01:00.839Z,10.94
2017-04-08T05:02:00.830Z,11
2017-04-08T05:03:00.826Z,11.07
2017-04-08T05:04:00.520Z,10.94
2017-04-08T05:05:00.819Z,11
2017-04-08T05:06:00.496Z,11.07
2017-04-08T05:07:00.795Z,11.07
2017-04-08T05:08:00.785Z,11.09
2017-04-08T05:09:00.780Z,11.07
2017-04-08T05:10:00.767Z,11.15
2017-04-08T05:11:00.758Z,11.19
2017-04-08T05:12:00.755Z,11.17
2017-04-08T05:13:00.742Z,11.22
2017-04-08T05:14:00.734Z,11.27
2017-04-08T05:15:00.728Z,11.27
2017-04-08T05:16:00.719Z,11.32
2017-04-08T05:17:00.710Z,11.25
2017-04-08T05:18:00.703Z,11.32
2017-04-08T05:19:00.391Z,11.33
2017-04-08T05:20:00.689Z,11.29
2017-04-08T05:21:00.378Z,11.29
2017-04-08T05:22:00.067Z,11.36
2017-04-08T05:23:00.063Z,11.39
2017-04-08T05:24:00.909Z,11.4
2017-04-08T05:25:00.653Z,11.36
2017-04-08T05:26:00.642Z,11.42
2017-04-08T05:27:00.642Z,11.4
2017-04-08T05:28:00.328Z,11.35
2017-04-08T05:29:00.670Z,11.35
2017-04-08T05:30:00.610Z,11.33
2017-04-08T05:31:00.301Z,11.32
2017-04-08T05:32:00.597Z,11.29
2017-04-08T05:33:00.590Z,11.35
2017-04-08T05:34:00.862Z,11.36
2017-04-08T05:35:00.572Z,11.35
2017-04-08T05:36:00.561Z,11.33
2017-04-08T05:37:00.558Z,11.29
2017-04-08T05:38:00.548Z,11.46
2017-04-08T05:39:00.792Z,11.36
2017-04-08T05:40:00.534Z,11.49
2017-04-08T05:41:00.525Z,11.46
2017-04-08T05:42:00.519Z,11.57
2017-04-08T05:43:00.513Z,11.58
2017-04-08T05:44:00.803Z,11.69
2017-04-08T05:45:00.512Z,11.73
2017-04-08T05:46:00.488Z,11.75
2017-04-08T05:47:00.482Z,11.79
2017-04-08T05:48:00.474Z,11.79
2017-04-08T05:49:00.717Z,11.83
2017-04-08T05:50:00.459Z,11.96
2017-04-08T05:51:00.156Z,12.01
2017-04-08T05:52:00.443Z,12.01
2017-04-08T05:53:00.446Z,12.05
2017-04-08T05:54:00.796Z,12.2
2017-04-08T05:55:00.429Z,12.12
2017-04-08T05:56:00.413Z,12.17
2017-04-08T05:57:00.408Z,12.05
2017-04-08T05:58:00.399Z,12.1
2017-04-08T05:59:00.650Z,12.1
2017-04-08T06:00:00.385Z,12.01
2017-04-08T06:01:00.380Z,12.2
2017-04-08T06:02:00.376Z,12.13
2017-04-08T06:03:00.365Z,12.14
2017-04-08T06:04:00.661Z,12.31
2017-04-08T06:05:00.352Z,12.39
2017-04-08T06:06:00.348Z,12.41
2017-04-08T06:07:00.337Z,12.45
2017-04-08T06:08:00.330Z,12.53
2017-04-08T06:09:00.581Z,12.56
2017-04-08T06:10:00.316Z,12.54
2017-04-08T06:11:00.316Z,12.59
2017-04-08T06:12:00.304Z,12.56
2017-04-08T06:13:00.305Z,12.67
2017-04-08T06:14:00.544Z,12.68
2017-04-08T06:15:00.287Z,12.72
2017-04-08T06:16:00.278Z,12.77
2017-04-08T06:17:00.277Z,12.82
2017-04-08T06:18:00.267Z,13.03
2017-04-08T06:19:00.513Z,13.1
2017-04-08T06:20:00.251Z,13.2
2017-04-08T06:21:00.245Z,13.17
2017-04-08T06:22:00.245Z,13.36
2017-04-08T06:23:00.232Z,13.36
2017-04-08T06:24:00.534Z,13.49
2017-04-08T06:24:59.918Z,13.57
2017-04-08T06:25:59.911Z,13.48
2017-04-08T06:27:00.211Z,13.57
2017-04-08T06:28:00.202Z,13.63
2017-04-08T06:29:00.449Z,13.63
2017-04-08T06:30:00.196Z,13.69
2017-04-08T06:31:00.186Z,13.64
2017-04-08T06:32:00.206Z,13.57
2017-04-08T06:32:59.870Z,13.67
2017-04-08T06:34:00.470Z,13.55
2017-04-08T06:35:00.166Z,13.54
2017-04-08T06:36:00.158Z,13.49
2017-04-08T06:37:00.151Z,13.57
2017-04-08T06:38:00.143Z,13.59
2017-04-08T06:39:00.491Z,13.6
2017-04-08T06:40:00.136Z,13.63
2017-04-08T06:41:00.128Z,13.71
2017-04-08T06:42:00.134Z,13.73
2017-04-08T06:43:00.118Z,13.85
2017-04-08T06:44:00.112Z,13.87
2017-04-08T06:45:00.106Z,14
2017-04-08T06:46:00.101Z,14.17
2017-04-08T06:47:00.091Z,14.07
2017-04-08T06:48:00.090Z,14.24
2017-04-08T06:49:00.084Z,14.21
2017-04-08T06:50:00.078Z,14.28
2017-04-08T06:51:00.070Z,14.27
2017-04-08T06:52:00.067Z,14.36
2017-04-08T06:53:00.065Z,14.51
2017-04-08T06:54:00.066Z,14.55
2017-04-08T06:55:00.054Z,14.58
2017-04-08T06:56:00.045Z,14.6
2017-04-08T06:57:00.044Z,14.64
2017-04-08T06:58:00.043Z,14.57
2017-04-08T06:59:00.030Z,14.52
2017-04-08T07:00:00.032Z,14.52
2017-04-08T07:01:00.018Z,14.51
2017-04-08T07:01:59.726Z,14.52
2017-04-08T07:03:00.012Z,14.58
2017-04-08T07:04:00.008Z,14.62
2017-04-08T07:05:00.008Z,14.52
2017-04-08T07:05:59.997Z,14.57
2017-04-08T07:06:59.989Z,14.52
2017-04-08T07:07:59.988Z,14.57
2017-04-08T07:08:59.980Z,14.57
2017-04-08T07:09:59.973Z,14.55
2017-04-08T07:10:59.973Z,14.54
2017-04-08T07:11:59.964Z,14.57
2017-04-08T07:12:59.956Z,14.51
2017-04-08T07:13:59.951Z,14.37
2017-04-08T07:14:59.948Z,14.4
2017-04-08T07:15:59.940Z,14.4
2017-04-08T07:16:59.633Z,14.27
2017-04-08T07:17:59.932Z,14.24
2017-04-08T07:18:59.927Z,14.28
2017-04-08T07:19:59.920Z,14.17
2017-04-08T07:20:59.917Z,14.18
2017-04-08T07:21:59.910Z,14.1
2017-04-08T07:22:59.905Z,14.18
2017-04-08T07:23:59.901Z,14.18
2017-04-08T07:24:59.899Z,14.15
2017-04-08T07:25:59.600Z,14.14
2017-04-08T07:26:59.885Z,14.2
2017-04-08T07:27:59.878Z,14.07
2017-04-08T07:28:59.878Z,14.18
2017-04-08T07:29:59.565Z,14.24
2017-04-08T07:30:59.864Z,14.29
2017-04-08T07:31:59.863Z,14.29
2017-04-08T07:32:59.857Z,14.22
2017-04-08T07:33:59.848Z,14.37
2017-04-08T07:34:59.847Z,14.27
2017-04-08T07:35:59.838Z,14.36
2017-04-08T07:36:59.831Z,14.5
2017-04-08T07:37:59.826Z,14.55
2017-04-08T07:38:59.824Z,14.62
2017-04-08T07:39:59.821Z,14.58
2017-04-08T07:40:59.510Z,14.5
2017-04-08T07:41:59.807Z,14.57
2017-04-08T07:42:59.816Z,14.78
2017-04-08T07:43:59.810Z,15.01
2017-04-08T07:44:59.794Z,15.17
2017-04-08T07:45:59.795Z,15.44
2017-04-08T07:46:59.786Z,15.75
2017-04-08T07:47:59.480Z,16
2017-04-08T07:48:59.780Z,16.33
2017-04-08T07:49:59.779Z,16.45
2017-04-08T07:50:59.772Z,16.53
2017-04-08T07:51:59.772Z,16.67
2017-04-08T07:52:59.769Z,16.71
2017-04-08T07:53:59.776Z,16.78
2017-04-08T07:54:59.764Z,16.82
2017-04-08T07:55:59.757Z,16.91
2017-04-08T07:56:59.757Z,16.86
2017-04-08T07:57:59.761Z,16.79
2017-04-08T07:58:59.448Z,16.88
2017-04-08T07:59:59.749Z,16.79
2017-04-08T08:00:59.753Z,16.82
2017-04-08T08:01:59.750Z,16.88
2017-04-08T08:02:59.745Z,16.94
2017-04-08T08:03:59.739Z,16.91
2017-04-08T08:04:59.740Z,16.94
2017-04-08T08:05:59.735Z,16.79
2017-04-08T08:06:59.734Z,16.85
2017-04-08T08:07:59.733Z,17.01
2017-04-08T08:08:59.728Z,17.11
2017-04-08T08:09:59.427Z,17.08
2017-04-08T08:10:59.724Z,17.16
2017-04-08T08:11:59.720Z,17.12
2017-04-08T08:12:59.726Z,17.23
2017-04-08T08:13:59.717Z,17.31
2017-04-08T08:14:59.713Z,17.36
2017-04-08T08:15:59.715Z,17.41
2017-04-08T08:16:59.711Z,17.54
2017-04-08T08:17:59.708Z,17.43
2017-04-08T08:18:59.704Z,17.38
2017-04-08T08:19:59.708Z,17.34
2017-04-08T08:20:59.706Z,17.3
2017-04-08T08:21:59.699Z,17.4
2017-04-08T08:22:59.712Z,17.38
2017-04-08T08:23:59.701Z,17.37
2017-04-08T08:24:59.698Z,17.28
2017-04-08T08:25:59.690Z,17.34
2017-04-08T08:26:59.688Z,17.25
2017-04-08T08:27:59.692Z,17.12
2017-04-08T08:28:59.687Z,17.03
2017-04-08T08:29:59.685Z,17.01
2017-04-08T08:30:59.682Z,16.98
2017-04-08T08:31:59.675Z,16.96
2017-04-08T08:32:59.672Z,16.86
2017-04-08T08:33:59.674Z,16.88
2017-04-08T08:34:59.672Z,16.96
2017-04-08T08:35:59.361Z,17.07
2017-04-08T08:36:59.664Z,17.11
2017-04-08T08:37:59.668Z,17.06
2017-04-08T08:38:59.662Z,17.16
2017-04-08T08:39:59.658Z,17.21
2017-04-08T08:40:59.660Z,17.33
2017-04-08T08:41:59.347Z,17.43
2017-04-08T08:42:59.648Z,17.63
2017-04-08T08:43:59.646Z,17.74
2017-04-08T08:44:59.645Z,17.77
2017-04-08T08:45:59.646Z,17.78
2017-04-08T08:46:59.643Z,17.64
2017-04-08T08:47:59.637Z,17.62
2017-04-08T08:48:59.639Z,17.56
2017-04-08T08:49:59.630Z,17.58
2017-04-08T08:50:59.630Z,17.62
2017-04-08T08:51:59.323Z,17.81
2017-04-08T08:52:59.625Z,17.97
2017-04-08T08:53:59.326Z,17.99
2017-04-08T08:54:59.622Z,18.2
2017-04-08T08:55:59.620Z,18.21
2017-04-08T08:56:59.620Z,18.35
2017-04-08T08:57:59.617Z,18.27
2017-04-08T08:58:59.614Z,18.32
2017-04-08T08:59:59.354Z,18.32
2017-04-08T09:00:59.615Z,18.32
2017-04-08T09:01:59.614Z,18.32
2017-04-08T09:02:59.613Z,18.12
2017-04-08T09:03:59.613Z,17.87
2017-04-08T09:04:59.609Z,17.52
2017-04-08T09:05:59.607Z,17.38
2017-04-08T09:06:59.605Z,17.23
2017-04-08T09:07:59.625Z,17.25
2017-04-08T09:08:59.603Z,17.37
2017-04-08T09:09:59.606Z,17.51
2017-04-08T09:10:59.632Z,17.41
2017-04-08T09:11:59.597Z,17.4
2017-04-08T09:12:59.594Z,17.21
2017-04-08T09:13:59.593Z,17.11
2017-04-08T09:14:59.592Z,17.08
2017-04-08T09:15:59.589Z,17.22
2017-04-08T09:16:59.592Z,17.11
2017-04-08T09:17:59.585Z,17.26
2017-04-08T09:18:59.587Z,17.4
2017-04-08T09:19:59.277Z,17.4
2017-04-08T09:20:59.601Z,17.46
2017-04-08T09:21:59.578Z,17.59
2017-04-08T09:22:59.576Z,17.56
2017-04-08T09:23:59.572Z,17.55
2017-04-08T09:24:59.571Z,17.56
2017-04-08T09:25:59.570Z,17.56
2017-04-08T09:26:59.570Z,17.62
2017-04-08T09:27:59.568Z,17.44
2017-04-08T09:28:59.568Z,17.44
2017-04-08T09:29:59.567Z,17.43
2017-04-08T09:30:59.562Z,17.56
2017-04-08T09:31:59.563Z,17.59
2017-04-08T09:32:59.561Z,17.75
2017-04-08T09:33:59.563Z,17.68
2017-04-08T09:34:59.562Z,17.58
2017-04-08T09:35:59.557Z,17.44
2017-04-08T09:36:59.558Z,17.4
2017-04-08T09:37:59.555Z,17.37
2017-04-08T09:38:59.548Z,17.37
2017-04-08T09:39:59.551Z,17.52
2017-04-08T09:40:59.547Z,17.59
2017-04-08T09:41:59.545Z,17.7
2017-04-08T09:42:59.543Z,17.84
2017-04-08T09:43:59.542Z,17.89
2017-04-08T09:44:59.540Z,18.15
2017-04-08T09:45:59.535Z,18.26
2017-04-08T09:46:59.539Z,18.36
2017-04-08T09:47:59.535Z,18.41
2017-04-08T09:48:59.534Z,18.54
2017-04-08T09:49:59.531Z,18.63
2017-04-08T09:50:59.228Z,18.52
2017-04-08T09:51:59.528Z,18.62
2017-04-08T09:52:59.566Z,18.54
2017-04-08T09:53:59.526Z,18.55
2017-04-08T09:54:59.523Z,18.52
2017-04-08T09:55:59.519Z,18.54
2017-04-08T09:56:59.214Z,18.7
2017-04-08T09:57:59.518Z,18.88
2017-04-08T09:58:59.517Z,18.99
2017-04-08T09:59:59.514Z,19.18
2017-04-08T10:00:59.517Z,19.28
2017-04-08T10:01:59.212Z,19.23
2017-04-08T10:02:59.510Z,19.31
2017-04-08T10:03:59.210Z,19.39
2017-04-08T10:04:59.762Z,19.31
2017-04-08T10:05:59.541Z,19.41
2017-04-08T10:06:59.508Z,19.39
2017-04-08T10:07:59.505Z,19.43
2017-04-08T10:08:59.543Z,19.44
2017-04-08T10:09:59.802Z,19.36
2017-04-08T10:10:59.499Z,19.28
2017-04-08T10:11:59.501Z,19.33
2017-04-08T10:12:59.499Z,19.36
2017-04-08T10:13:59.497Z,19.48
2017-04-08T10:14:59.795Z,19.61
2017-04-08T10:15:59.495Z,19.81
2017-04-08T10:16:59.495Z,19.81
2017-04-08T10:17:59.492Z,19.92
2017-04-08T10:18:59.494Z,19.92
2017-04-08T10:19:59.744Z,20.01
2017-04-08T10:20:59.489Z,20.02
2017-04-08T10:21:59.489Z,19.92
2017-04-08T10:22:59.489Z,19.95
2017-04-08T10:23:59.493Z,19.94
2017-04-08T10:24:59.842Z,19.86
2017-04-08T10:25:59.486Z,19.76
2017-04-08T10:26:59.483Z,19.71
2017-04-08T10:27:59.488Z,19.78
2017-04-08T10:28:59.482Z,19.77
2017-04-08T10:29:59.734Z,19.78
2017-04-08T10:30:59.481Z,19.77
2017-04-08T10:31:59.478Z,19.69
2017-04-08T10:32:59.482Z,19.73
2017-04-08T10:33:59.477Z,19.83
2017-04-08T10:34:59.730Z,19.78
2017-04-08T10:35:59.477Z,19.94
2017-04-08T10:36:59.478Z,20.01
2017-04-08T10:37:59.475Z,20.05
2017-04-08T10:38:59.479Z,20.05
2017-04-08T10:39:59.422Z,20.08
2017-04-08T10:40:59.475Z,20.02
2017-04-08T10:41:59.474Z,20.03
2017-04-08T10:42:59.473Z,19.95
2017-04-08T10:43:59.475Z,19.96
2017-04-08T10:44:59.774Z,19.88
2017-04-08T10:45:59.479Z,20.03
2017-04-08T10:46:59.473Z,20.08
2017-04-08T10:47:59.471Z,20.16
2017-04-08T10:48:59.519Z,20.17
2017-04-08T10:49:59.724Z,20.18
2017-04-08T10:50:59.482Z,20.29
2017-04-08T10:51:59.468Z,20.21
2017-04-08T10:52:59.480Z,20.21
2017-04-08T10:53:59.468Z,20.28
2017-04-08T10:54:59.717Z,20.32
2017-04-08T10:55:59.469Z,20.35
2017-04-08T10:56:59.469Z,20.47
2017-04-08T10:57:59.471Z,20.52
2017-04-08T10:58:59.468Z,20.64
2017-04-08T10:59:59.718Z,20.7
2017-04-08T11:00:59.469Z,20.77
2017-04-08T11:01:59.467Z,20.73
2017-04-08T11:02:59.471Z,20.82
2017-04-08T11:03:59.468Z,20.85
2017-04-08T11:04:59.778Z,20.77
2017-04-08T11:05:59.468Z,20.8
2017-04-08T11:06:59.469Z,20.84
2017-04-08T11:07:59.164Z,20.72
2017-04-08T11:08:59.466Z,20.59
2017-04-08T11:09:59.718Z,20.54
2017-04-08T11:10:59.468Z,20.54
2017-04-08T11:11:59.499Z,20.54
2017-04-08T11:12:59.472Z,20.61
2017-04-08T11:13:59.467Z,20.67
2017-04-08T11:14:59.717Z,20.76
2017-04-08T11:15:59.468Z,20.79
2017-04-08T11:16:59.170Z,20.97
2017-04-08T11:17:59.471Z,20.99
2017-04-08T11:18:59.469Z,21.09
2017-04-08T11:19:59.723Z,21.04
2017-04-08T11:20:59.479Z,21.01
2017-04-08T11:21:59.471Z,20.76
2017-04-08T11:22:59.470Z,20.51
2017-04-08T11:23:59.476Z,20.26
2017-04-08T11:24:59.721Z,20.08
2017-04-08T11:25:59.472Z,20.1
2017-04-08T11:26:59.470Z,20.08
2017-04-08T11:27:59.472Z,19.94
2017-04-08T11:28:59.469Z,19.87
2017-04-08T11:29:59.728Z,19.84
2017-04-08T11:30:59.471Z,19.71
2017-04-08T11:31:59.473Z,19.74
2017-04-08T11:32:59.466Z,19.76
2017-04-08T11:33:59.467Z,19.83
2017-04-08T11:35:00.114Z,19.69
2017-04-08T11:35:59.464Z,19.81
2017-04-08T11:36:59.475Z,19.83
2017-04-08T11:37:59.463Z,19.92
2017-04-08T11:38:59.482Z,19.99
2017-04-08T11:39:59.711Z,20.08
2017-04-08T11:40:59.464Z,20.23
2017-04-08T11:41:59.462Z,20.29
2017-04-08T11:42:59.461Z,20.2
2017-04-08T11:43:59.461Z,20.31
2017-04-08T11:44:59.809Z,20.42
2017-04-08T11:45:59.457Z,20.51
2017-04-08T11:46:59.455Z,20.66
2017-04-08T11:47:59.455Z,20.69
2017-04-08T11:48:59.456Z,20.74
2017-04-08T11:49:59.704Z,20.67
2017-04-08T11:50:59.455Z,20.67
2017-04-08T11:51:59.454Z,20.57
2017-04-08T11:52:59.461Z,20.38
2017-04-08T11:53:59.459Z,20.32
2017-04-08T11:54:59.752Z,20.23
2017-04-08T11:55:59.452Z,20.16
2017-04-08T11:56:59.451Z,20.18
2017-04-08T11:57:59.452Z,20.17
2017-04-08T11:58:59.452Z,19.98
2017-04-08T11:59:59.765Z,20.05
2017-04-08T12:00:59.451Z,19.96
2017-04-08T12:01:59.450Z,19.81
2017-04-08T12:02:59.448Z,19.83
2017-04-08T12:03:59.451Z,19.74
2017-04-08T12:04:59.799Z,19.59
2017-04-08T12:05:59.449Z,19.48
2017-04-08T12:06:59.451Z,19.43
2017-04-08T12:07:59.491Z,19.36
2017-04-08T12:08:59.445Z,19.22
2017-04-08T12:09:59.691Z,19.19
2017-04-08T12:10:59.645Z,19
2017-04-08T12:11:59.443Z,18.92
2017-04-08T12:12:59.437Z,18.87
2017-04-08T12:13:59.438Z,18.76
2017-04-08T12:14:59.735Z,18.63
2017-04-08T12:15:59.435Z,18.57
2017-04-08T12:16:59.433Z,18.52
2017-04-08T12:17:59.429Z,18.48
2017-04-08T12:18:59.426Z,18.42
2017-04-08T12:19:59.677Z,18.32
2017-04-08T12:20:59.427Z,18.35
2017-04-08T12:21:59.423Z,18.3
2017-04-08T12:22:59.460Z,18.3
2017-04-08T12:23:59.422Z,18.32
2017-04-08T12:24:59.428Z,18.26
2017-04-08T12:25:59.415Z,18.17
2017-04-08T12:26:59.415Z,18.23
2017-04-08T12:27:59.413Z,18.21
2017-04-08T12:28:59.410Z,18.21
2017-04-08T12:29:59.709Z,18.29
2017-04-08T12:30:59.405Z,18.45
2017-04-08T12:31:59.407Z,18.44
2017-04-08T12:32:59.400Z,18.41
2017-04-08T12:33:59.405Z,18.55
2017-04-08T12:34:59.351Z,18.45
2017-04-08T12:35:59.400Z,18.57
2017-04-08T12:36:59.093Z,18.76
2017-04-08T12:37:59.401Z,18.88
2017-04-08T12:38:59.390Z,18.99
2017-04-08T12:39:59.694Z,18.99
2017-04-08T12:40:59.387Z,19.14
2017-04-08T12:41:59.385Z,19.18
2017-04-08T12:42:59.384Z,19.14
2017-04-08T12:43:59.383Z,19.02
2017-04-08T12:44:59.629Z,18.95
2017-04-08T12:45:59.379Z,19.02
2017-04-08T12:46:59.381Z,18.92
2017-04-08T12:47:59.074Z,18.9
2017-04-08T12:48:59.373Z,18.76
2017-04-08T12:49:59.622Z,18.69
2017-04-08T12:50:59.371Z,18.6
2017-04-08T12:51:59.367Z,18.54
2017-04-08T12:52:59.365Z,18.44
2017-04-08T12:53:59.366Z,18.27